sensor_id;sensor_type;location;lat;lon;timestamp;P1;durP1;ratioP1;P2;durP2;ratioP2
72771;SDS011;60894;42.544;1.516;2023-05-20T00:01:46;2.15;;;1.08;;
72771;SDS011;60894;42.544;1.516;2023-05-20T00:04:13;2.77;;;1.00;;
72771;SDS011;60894;42.544;1.516;2023-05-20T00:06:40;2.78;;;1.00;;
72771;SDS011;60894;42.544;1.516;2023-05-20T00:09:07;3.67;;;1.30;;
72771;SDS011;60894;42.544;1.516;2023-05-20T00:11:35;2.42;;;1.15;;
72771;SDS011;60894;42.544;1.516;2023-05-20T00:14:03;2.53;;;1.10;;
72771;SDS011;60894;42.544;1.516;2023-05-20T00:16:30;3.30;;;1.20;;
72771;SDS011;60894;42.544;1.516;2023-05-20T00:18:57;3.55;;;1.15;;
72771;SDS011;60894;42.544;1.516;2023-05-20T00:21:24;2.85;;;1.20;;
72771;SDS011;60894;42.544;1.516;2023-05-20T00:23:51;3.25;;;1.08;;
72771;SDS011;60894;42.544;1.516;2023-05-20T00:26:18;3.90;;;1.10;;
72771;SDS011;60894;42.544;1.516;2023-05-20T00:28:45;3.37;;;1.20;;
72771;SDS011;60894;42.544;1.516;2023-05-20T00:31:13;2.70;;;1.08;;
72771;SDS011;60894;42.544;1.516;2023-05-20T00:33:40;3.10;;;1.38;;
72771;SDS011;60894;42.544;1.516;2023-05-20T00:36:07;3.13;;;1.10;;
72771;SDS011;60894;42.544;1.516;2023-05-20T00:38:34;2.40;;;1.05;;
72771;SDS011;60894;42.544;1.516;2023-05-20T00:41:01;2.63;;;1.00;;
72771;SDS011;60894;42.544;1.516;2023-05-20T00:43:28;3.30;;;1.20;;
72771;SDS011;60894;42.544;1.516;2023-05-20T00:45:55;3.70;;;1.00;;
72771;SDS011;60894;42.544;1.516;2023-05-20T00:48:23;3.58;;;1.10;;
72771;SDS011;60894;42.544;1.516;2023-05-20T00:50:50;4.53;;;1.30;;
72771;SDS011;60894;42.544;1.516;2023-05-20T00:53:17;3.03;;;1.30;;
72771;SDS011;60894;42.544;1.516;2023-05-20T00:55:45;3.08;;;1.20;;
72771;SDS011;60894;42.544;1.516;2023-05-20T00:58:12;3.10;;;1.27;;
72771;SDS011;60894;42.544;1.516;2023-05-20T01:00:39;3.40;;;1.40;;
72771;SDS011;60894;42.544;1.516;2023-05-20T01:03:06;3.65;;;1.30;;
72771;SDS011;60894;42.544;1.516;2023-05-20T01:05:35;3.83;;;1.33;;
72771;SDS011;60894;42.544;1.516;2023-05-20T01:08:02;3.50;;;1.17;;
72771;SDS011;60894;42.544;1.516;2023-05-20T01:10:29;5.43;;;1.70;;
72771;SDS011;60894;42.544;1.516;2023-05-20T01:12:57;5.43;;;1.48;;
72771;SDS011;60894;42.544;1.516;2023-05-20T01:15:29;4.72;;;1.60;;
72771;SDS011;60894;42.544;1.516;2023-05-20T01:17:57;4.37;;;1.67;;
72771;SDS011;60894;42.544;1.516;2023-05-20T01:20:30;3.97;;;1.50;;
72771;SDS011;60894;42.544;1.516;2023-05-20T01:22:59;4.40;;;1.60;;
72771;SDS011;60894;42.544;1.516;2023-05-20T01:25:26;4.35;;;1.77;;
72771;SDS011;60894;42.544;1.516;2023-05-20T01:27:53;3.55;;;1.67;;
72771;SDS011;60894;42.544;1.516;2023-05-20T01:30:23;3.37;;;1.50;;
72771;SDS011;60894;42.544;1.516;2023-05-20T01:32:56;5.63;;;1.80;;
72771;SDS011;60894;42.544;1.516;2023-05-20T01:35:26;4.22;;;1.80;;
72771;SDS011;60894;42.544;1.516;2023-05-20T01:37:55;5.43;;;1.77;;
72771;SDS011;60894;42.544;1.516;2023-05-20T01:40:24;3.38;;;1.45;;
72771;SDS011;60894;42.544;1.516;2023-05-20T01:42:54;4.70;;;1.67;;
72771;SDS011;60894;42.544;1.516;2023-05-20T01:45:23;4.85;;;1.60;;
72771;SDS011;60894;42.544;1.516;2023-05-20T01:47:51;3.90;;;1.40;;
72771;SDS011;60894;42.544;1.516;2023-05-20T01:50:18;3.50;;;1.50;;
72771;SDS011;60894;42.544;1.516;2023-05-20T01:52:45;5.63;;;1.85;;
72771;SDS011;60894;42.544;1.516;2023-05-20T01:55:12;5.10;;;1.57;;
72771;SDS011;60894;42.544;1.516;2023-05-20T01:57:40;6.45;;;1.85;;
72771;SDS011;60894;42.544;1.516;2023-05-20T02:00:07;8.18;;;1.83;;
72771;SDS011;60894;42.544;1.516;2023-05-20T02:02:36;4.80;;;1.83;;
72771;SDS011;60894;42.544;1.516;2023-05-20T02:05:03;4.53;;;1.70;;
72771;SDS011;60894;42.544;1.516;2023-05-20T02:07:31;5.40;;;1.63;;
72771;SDS011;60894;42.544;1.516;2023-05-20T02:09:58;4.65;;;1.83;;
72771;SDS011;60894;42.544;1.516;2023-05-20T02:12:25;4.03;;;1.73;;
72771;SDS011;60894;42.544;1.516;2023-05-20T02:14:53;4.63;;;1.77;;
72771;SDS011;60894;42.544;1.516;2023-05-20T02:17:20;3.92;;;1.55;;
72771;SDS011;60894;42.544;1.516;2023-05-20T02:19:47;3.00;;;1.30;;
72771;SDS011;60894;42.544;1.516;2023-05-20T02:22:14;4.22;;;1.60;;
72771;SDS011;60894;42.544;1.516;2023-05-20T02:24:41;4.03;;;1.77;;
72771;SDS011;60894;42.544;1.516;2023-05-20T02:27:08;4.40;;;1.60;;
72771;SDS011;60894;42.544;1.516;2023-05-20T02:29:35;4.38;;;1.60;;
72771;SDS011;60894;42.544;1.516;2023-05-20T02:32:04;3.83;;;1.67;;
72771;SDS011;60894;42.544;1.516;2023-05-20T02:34:31;5.57;;;1.60;;
72771;SDS011;60894;42.544;1.516;2023-05-20T02:36:58;5.22;;;1.80;;
72771;SDS011;60894;42.544;1.516;2023-05-20T02:39:25;4.53;;;1.70;;
72771;SDS011;60894;42.544;1.516;2023-05-20T02:41:53;6.85;;;1.80;;
72771;SDS011;60894;42.544;1.516;2023-05-20T02:44:20;10.50;;;3.90;;
72771;SDS011;60894;42.544;1.516;2023-05-20T02:46:47;5.00;;;2.00;;
72771;SDS011;60894;42.544;1.516;2023-05-20T02:49:15;4.93;;;1.60;;
72771;SDS011;60894;42.544;1.516;2023-05-20T02:51:42;5.03;;;1.70;;
72771;SDS011;60894;42.544;1.516;2023-05-20T02:54:09;5.40;;;1.90;;
72771;SDS011;60894;42.544;1.516;2023-05-20T02:56:36;5.90;;;2.00;;
72771;SDS011;60894;42.544;1.516;2023-05-20T02:59:03;4.25;;;1.80;;
72771;SDS011;60894;42.544;1.516;2023-05-20T03:01:31;6.53;;;2.20;;
72771;SDS011;60894;42.544;1.516;2023-05-20T03:03:59;7.47;;;2.20;;
72771;SDS011;60894;42.544;1.516;2023-05-20T03:06:28;7.90;;;2.47;;
72771;SDS011;60894;42.544;1.516;2023-05-20T03:08:55;5.30;;;1.90;;
72771;SDS011;60894;42.544;1.516;2023-05-20T03:11:23;4.82;;;2.10;;
72771;SDS011;60894;42.544;1.516;2023-05-20T03:13:50;4.63;;;2.03;;
72771;SDS011;60894;42.544;1.516;2023-05-20T03:16:17;5.60;;;1.98;;
72771;SDS011;60894;42.544;1.516;2023-05-20T03:18:44;6.40;;;2.28;;
72771;SDS011;60894;42.544;1.516;2023-05-20T03:21:11;6.20;;;2.10;;
72771;SDS011;60894;42.544;1.516;2023-05-20T03:23:39;6.40;;;2.20;;
72771;SDS011;60894;42.544;1.516;2023-05-20T03:26:06;6.15;;;2.20;;
72771;SDS011;60894;42.544;1.516;2023-05-20T03:28:34;6.15;;;2.13;;
72771;SDS011;60894;42.544;1.516;2023-05-20T03:31:01;5.40;;;2.10;;
72771;SDS011;60894;42.544;1.516;2023-05-20T03:33:28;5.97;;;1.93;;
72771;SDS011;60894;42.544;1.516;2023-05-20T03:35:55;6.28;;;2.00;;
72771;SDS011;60894;42.544;1.516;2023-05-20T03:38:22;6.18;;;2.33;;
72771;SDS011;60894;42.544;1.516;2023-05-20T03:40:51;7.28;;;2.20;;
72771;SDS011;60894;42.544;1.516;2023-05-20T03:43:18;5.78;;;2.20;;
72771;SDS011;60894;42.544;1.516;2023-05-20T03:45:44;6.47;;;2.37;;
72771;SDS011;60894;42.544;1.516;2023-05-20T03:48:11;6.05;;;2.10;;
72771;SDS011;60894;42.544;1.516;2023-05-20T03:50:38;6.78;;;2.00;;
72771;SDS011;60894;42.544;1.516;2023-05-20T03:53:05;5.75;;;2.10;;
72771;SDS011;60894;42.544;1.516;2023-05-20T03:55:32;5.18;;;2.22;;
72771;SDS011;60894;42.544;1.516;2023-05-20T03:58:00;6.10;;;1.90;;
72771;SDS011;60894;42.544;1.516;2023-05-20T04:00:27;5.45;;;2.20;;
72771;SDS011;60894;42.544;1.516;2023-05-20T04:02:55;6.35;;;2.40;;
72771;SDS011;60894;42.544;1.516;2023-05-20T04:05:23;5.57;;;2.20;;
72771;SDS011;60894;42.544;1.516;2023-05-20T04:07:50;5.85;;;2.20;;
72771;SDS011;60894;42.544;1.516;2023-05-20T04:10:17;7.47;;;2.17;;
72771;SDS011;60894;42.544;1.516;2023-05-20T04:12:44;6.85;;;2.42;;
72771;SDS011;60894;42.544;1.516;2023-05-20T04:15:13;6.57;;;2.15;;
72771;SDS011;60894;42.544;1.516;2023-05-20T04:17:40;6.68;;;2.10;;
72771;SDS011;60894;42.544;1.516;2023-05-20T04:20:08;8.63;;;2.70;;
72771;SDS011;60894;42.544;1.516;2023-05-20T04:22:35;7.27;;;2.20;;
72771;SDS011;60894;42.544;1.516;2023-05-20T04:25:03;6.28;;;2.20;;
72771;SDS011;60894;42.544;1.516;2023-05-20T04:27:31;6.47;;;2.30;;
72771;SDS011;60894;42.544;1.516;2023-05-20T04:29:58;7.32;;;2.30;;
72771;SDS011;60894;42.544;1.516;2023-05-20T04:32:27;5.28;;;2.15;;
72771;SDS011;60894;42.544;1.516;2023-05-20T04:34:55;6.63;;;2.50;;
72771;SDS011;60894;42.544;1.516;2023-05-20T04:37:22;7.63;;;2.33;;
72771;SDS011;60894;42.544;1.516;2023-05-20T04:39:49;6.00;;;2.15;;
72771;SDS011;60894;42.544;1.516;2023-05-20T04:42:16;6.20;;;2.35;;
72771;SDS011;60894;42.544;1.516;2023-05-20T04:44:44;5.65;;;2.30;;
72771;SDS011;60894;42.544;1.516;2023-05-20T04:47:12;5.77;;;2.33;;
72771;SDS011;60894;42.544;1.516;2023-05-20T04:49:40;7.53;;;2.67;;
72771;SDS011;60894;42.544;1.516;2023-05-20T04:52:07;5.68;;;2.42;;
72771;SDS011;60894;42.544;1.516;2023-05-20T04:54:34;7.97;;;2.30;;
72771;SDS011;60894;42.544;1.516;2023-05-20T04:57:01;7.22;;;2.10;;
72771;SDS011;60894;42.544;1.516;2023-05-20T04:59:28;8.40;;;2.23;;
72771;SDS011;60894;42.544;1.516;2023-05-20T05:01:55;6.63;;;2.50;;
72771;SDS011;60894;42.544;1.516;2023-05-20T05:04:22;5.80;;;2.10;;
72771;SDS011;60894;42.544;1.516;2023-05-20T05:06:51;6.55;;;2.10;;
72771;SDS011;60894;42.544;1.516;2023-05-20T05:09:17;7.15;;;2.50;;
72771;SDS011;60894;42.544;1.516;2023-05-20T05:11:44;8.00;;;2.80;;
72771;SDS011;60894;42.544;1.516;2023-05-20T05:14:11;6.38;;;2.47;;
72771;SDS011;60894;42.544;1.516;2023-05-20T05:16:38;4.45;;;1.95;;
72771;SDS011;60894;42.544;1.516;2023-05-20T05:19:05;7.05;;;2.50;;
72771;SDS011;60894;42.544;1.516;2023-05-20T05:21:32;7.32;;;2.60;;
72771;SDS011;60894;42.544;1.516;2023-05-20T05:24:01;6.47;;;2.27;;
72771;SDS011;60894;42.544;1.516;2023-05-20T05:26:28;7.10;;;2.45;;
72771;SDS011;60894;42.544;1.516;2023-05-20T05:28:55;6.30;;;2.20;;
72771;SDS011;60894;42.544;1.516;2023-05-20T05:31:22;5.20;;;2.00;;
72771;SDS011;60894;42.544;1.516;2023-05-20T05:33:49;5.95;;;2.45;;
72771;SDS011;60894;42.544;1.516;2023-05-20T05:36:15;5.50;;;2.50;;
72771;SDS011;60894;42.544;1.516;2023-05-20T05:38:42;8.60;;;2.75;;
72771;SDS011;60894;42.544;1.516;2023-05-20T05:41:11;6.05;;;2.40;;
72771;SDS011;60894;42.544;1.516;2023-05-20T05:43:38;9.98;;;3.30;;
72771;SDS011;60894;42.544;1.516;2023-05-20T05:46:05;10.00;;;2.80;;
72771;SDS011;60894;42.544;1.516;2023-05-20T05:48:32;6.10;;;2.40;;
72771;SDS011;60894;42.544;1.516;2023-05-20T05:50:59;7.07;;;2.50;;
72771;SDS011;60894;42.544;1.516;2023-05-20T05:53:26;6.72;;;2.35;;
72771;SDS011;60894;42.544;1.516;2023-05-20T05:55:53;6.55;;;2.40;;
72771;SDS011;60894;42.544;1.516;2023-05-20T05:58:22;6.70;;;2.25;;
72771;SDS011;60894;42.544;1.516;2023-05-20T06:00:50;7.60;;;3.30;;
72771;SDS011;60894;42.544;1.516;2023-05-20T06:03:17;10.65;;;3.50;;
72771;SDS011;60894;42.544;1.516;2023-05-20T06:05:44;8.38;;;3.00;;
72771;SDS011;60894;42.544;1.516;2023-05-20T06:08:11;7.30;;;2.60;;
72771;SDS011;60894;42.544;1.516;2023-05-20T06:10:38;7.47;;;2.63;;
72771;SDS011;60894;42.544;1.516;2023-05-20T06:13:05;7.23;;;2.43;;
72771;SDS011;60894;42.544;1.516;2023-05-20T06:15:34;8.23;;;2.30;;
72771;SDS011;60894;42.544;1.516;2023-05-20T06:18:01;10.48;;;2.80;;
72771;SDS011;60894;42.544;1.516;2023-05-20T06:20:28;9.50;;;2.20;;
72771;SDS011;60894;42.544;1.516;2023-05-20T06:22:55;10.48;;;2.88;;
72771;SDS011;60894;42.544;1.516;2023-05-20T06:25:22;6.90;;;2.40;;
72771;SDS011;60894;42.544;1.516;2023-05-20T06:27:49;8.52;;;4.22;;
72771;SDS011;60894;42.544;1.516;2023-05-20T06:30:16;8.45;;;3.25;;
72771;SDS011;60894;42.544;1.516;2023-05-20T06:32:45;10.95;;;3.45;;
72771;SDS011;60894;42.544;1.516;2023-05-20T06:35:12;8.90;;;3.70;;
72771;SDS011;60894;42.544;1.516;2023-05-20T06:37:39;7.20;;;2.53;;
72771;SDS011;60894;42.544;1.516;2023-05-20T06:40:06;5.78;;;2.10;;
72771;SDS011;60894;42.544;1.516;2023-05-20T06:42:34;8.10;;;2.47;;
72771;SDS011;60894;42.544;1.516;2023-05-20T06:45:01;7.60;;;2.20;;
72771;SDS011;60894;42.544;1.516;2023-05-20T06:47:28;5.07;;;1.98;;
72771;SDS011;60894;42.544;1.516;2023-05-20T06:49:56;7.50;;;1.87;;
72771;SDS011;60894;42.544;1.516;2023-05-20T06:52:23;8.52;;;1.95;;
72771;SDS011;60894;42.544;1.516;2023-05-20T06:54:50;9.02;;;3.08;;
72771;SDS011;60894;42.544;1.516;2023-05-20T06:57:17;12.02;;;2.80;;
72771;SDS011;60894;42.544;1.516;2023-05-20T06:59:44;8.90;;;2.78;;
72771;SDS011;60894;42.544;1.516;2023-05-20T07:02:11;9.93;;;2.70;;
72771;SDS011;60894;42.544;1.516;2023-05-20T07:04:38;6.75;;;2.00;;
72771;SDS011;60894;42.544;1.516;2023-05-20T07:07:06;7.47;;;2.28;;
72771;SDS011;60894;42.544;1.516;2023-05-20T07:09:33;7.95;;;2.20;;
72771;SDS011;60894;42.544;1.516;2023-05-20T07:12:00;6.78;;;2.38;;
72771;SDS011;60894;42.544;1.516;2023-05-20T07:14:27;7.53;;;2.63;;
72771;SDS011;60894;42.544;1.516;2023-05-20T07:16:54;8.65;;;2.53;;
72771;SDS011;60894;42.544;1.516;2023-05-20T07:19:21;6.78;;;2.60;;
72771;SDS011;60894;42.544;1.516;2023-05-20T07:21:48;7.30;;;2.00;;
72771;SDS011;60894;42.544;1.516;2023-05-20T07:24:16;7.97;;;2.10;;
72771;SDS011;60894;42.544;1.516;2023-05-20T07:26:43;6.10;;;2.10;;
72771;SDS011;60894;42.544;1.516;2023-05-20T07:29:10;4.70;;;1.85;;
72771;SDS011;60894;42.544;1.516;2023-05-20T07:31:37;5.45;;;1.80;;
72771;SDS011;60894;42.544;1.516;2023-05-20T07:34:04;7.15;;;2.60;;
72771;SDS011;60894;42.544;1.516;2023-05-20T07:36:31;7.20;;;2.17;;
72771;SDS011;60894;42.544;1.516;2023-05-20T07:38:58;4.37;;;1.70;;
72771;SDS011;60894;42.544;1.516;2023-05-20T07:41:26;7.72;;;2.35;;
72771;SDS011;60894;42.544;1.516;2023-05-20T07:43:53;6.00;;;2.15;;
72771;SDS011;60894;42.544;1.516;2023-05-20T07:46:20;11.25;;;2.40;;
72771;SDS011;60894;42.544;1.516;2023-05-20T07:48:47;7.30;;;2.20;;
72771;SDS011;60894;42.544;1.516;2023-05-20T07:51:14;7.80;;;2.00;;
72771;SDS011;60894;42.544;1.516;2023-05-20T07:53:41;5.35;;;2.05;;
72771;SDS011;60894;42.544;1.516;2023-05-20T07:56:08;6.07;;;1.70;;
72771;SDS011;60894;42.544;1.516;2023-05-20T07:58:36;6.13;;;2.10;;
72771;SDS011;60894;42.544;1.516;2023-05-20T08:01:03;6.07;;;2.08;;
72771;SDS011;60894;42.544;1.516;2023-05-20T08:03:30;6.13;;;1.77;;
72771;SDS011;60894;42.544;1.516;2023-05-20T08:05:57;5.45;;;2.22;;
72771;SDS011;60894;42.544;1.516;2023-05-20T08:08:24;6.72;;;2.25;;
72771;SDS011;60894;42.544;1.516;2023-05-20T08:10:53;6.68;;;2.25;;
72771;SDS011;60894;42.544;1.516;2023-05-20T08:13:20;7.30;;;2.20;;
72771;SDS011;60894;42.544;1.516;2023-05-20T08:15:48;4.80;;;1.90;;
72771;SDS011;60894;42.544;1.516;2023-05-20T08:18:15;5.88;;;2.53;;
72771;SDS011;60894;42.544;1.516;2023-05-20T08:20:42;6.47;;;2.13;;
72771;SDS011;60894;42.544;1.516;2023-05-20T08:23:09;6.05;;;2.20;;
72771;SDS011;60894;42.544;1.516;2023-05-20T08:25:36;6.20;;;2.15;;
72771;SDS011;60894;42.544;1.516;2023-05-20T08:28:03;8.30;;;2.47;;
72771;SDS011;60894;42.544;1.516;2023-05-20T08:30:31;7.68;;;2.50;;
72771;SDS011;60894;42.544;1.516;2023-05-20T08:33:00;7.72;;;2.85;;
72771;SDS011;60894;42.544;1.516;2023-05-20T08:35:27;5.00;;;1.98;;
72771;SDS011;60894;42.544;1.516;2023-05-20T08:37:54;8.98;;;2.60;;
72771;SDS011;60894;42.544;1.516;2023-05-20T08:40:21;6.33;;;2.20;;
72771;SDS011;60894;42.544;1.516;2023-05-20T08:42:49;10.45;;;2.58;;
72771;SDS011;60894;42.544;1.516;2023-05-20T08:45:18;7.50;;;2.67;;
72771;SDS011;60894;42.544;1.516;2023-05-20T08:47:45;7.72;;;2.80;;
72771;SDS011;60894;42.544;1.516;2023-05-20T08:50:14;7.95;;;2.40;;
72771;SDS011;60894;42.544;1.516;2023-05-20T08:52:42;9.90;;;2.33;;
72771;SDS011;60894;42.544;1.516;2023-05-20T08:55:12;7.63;;;2.63;;
72771;SDS011;60894;42.544;1.516;2023-05-20T08:57:40;8.40;;;2.30;;
72771;SDS011;60894;42.544;1.516;2023-05-20T09:00:10;6.75;;;2.40;;
72771;SDS011;60894;42.544;1.516;2023-05-20T09:02:40;6.82;;;2.33;;
72771;SDS011;60894;42.544;1.516;2023-05-20T09:05:08;7.03;;;3.03;;
72771;SDS011;60894;42.544;1.516;2023-05-20T09:07:37;9.43;;;2.55;;
72771;SDS011;60894;42.544;1.516;2023-05-20T09:10:07;10.63;;;3.00;;
72771;SDS011;60894;42.544;1.516;2023-05-20T09:12:35;9.18;;;2.50;;
72771;SDS011;60894;42.544;1.516;2023-05-20T09:15:02;8.57;;;2.53;;
72771;SDS011;60894;42.544;1.516;2023-05-20T09:17:31;8.93;;;2.60;;
72771;SDS011;60894;42.544;1.516;2023-05-20T09:19:58;5.60;;;2.13;;
72771;SDS011;60894;42.544;1.516;2023-05-20T09:22:25;6.90;;;2.70;;
72771;SDS011;60894;42.544;1.516;2023-05-20T09:24:54;7.50;;;2.33;;
72771;SDS011;60894;42.544;1.516;2023-05-20T09:27:21;6.55;;;2.47;;
72771;SDS011;60894;42.544;1.516;2023-05-20T09:29:49;5.27;;;2.10;;
72771;SDS011;60894;42.544;1.516;2023-05-20T09:32:17;4.40;;;2.03;;
72771;SDS011;60894;42.544;1.516;2023-05-20T09:34:48;6.25;;;2.28;;
72771;SDS011;60894;42.544;1.516;2023-05-20T09:37:16;5.72;;;2.08;;
72771;SDS011;60894;42.544;1.516;2023-05-20T09:39:45;6.25;;;2.35;;
72771;SDS011;60894;42.544;1.516;2023-05-20T09:42:24;6.13;;;2.20;;
72771;SDS011;60894;42.544;1.516;2023-05-20T09:44:53;6.68;;;2.20;;
72771;SDS011;60894;42.544;1.516;2023-05-20T09:47:22;5.53;;;1.95;;
72771;SDS011;60894;42.544;1.516;2023-05-20T09:49:51;6.38;;;2.22;;
72771;SDS011;60894;42.544;1.516;2023-05-20T09:52:18;6.88;;;2.38;;
72771;SDS011;60894;42.544;1.516;2023-05-20T09:54:45;7.70;;;2.13;;
72771;SDS011;60894;42.544;1.516;2023-05-20T09:57:14;6.88;;;2.28;;
72771;SDS011;60894;42.544;1.516;2023-05-20T09:59:43;6.50;;;2.03;;
72771;SDS011;60894;42.544;1.516;2023-05-20T10:02:12;9.88;;;2.45;;
72771;SDS011;60894;42.544;1.516;2023-05-20T10:04:41;8.25;;;1.98;;
72771;SDS011;60894;42.544;1.516;2023-05-20T10:10:13;5.18;;;2.10;;
72771;SDS011;60894;42.544;1.516;2023-05-20T10:12:50;6.25;;;2.50;;
72771;SDS011;60894;42.544;1.516;2023-05-20T10:15:27;6.47;;;2.10;;
72771;SDS011;60894;42.544;1.516;2023-05-20T10:18:05;6.97;;;2.00;;
72771;SDS011;60894;42.544;1.516;2023-05-20T10:20:44;7.17;;;2.27;;
72771;SDS011;60894;42.544;1.516;2023-05-20T10:23:19;7.65;;;2.30;;
72771;SDS011;60894;42.544;1.516;2023-05-20T10:25:50;8.07;;;2.70;;
72771;SDS011;60894;42.544;1.516;2023-05-20T10:28:26;4.93;;;1.85;;
72771;SDS011;60894;42.544;1.516;2023-05-20T10:30:56;7.38;;;2.15;;
72771;SDS011;60894;42.544;1.516;2023-05-20T10:33:24;6.27;;;2.30;;
72771;SDS011;60894;42.544;1.516;2023-05-20T10:35:52;8.20;;;2.28;;
72771;SDS011;60894;42.544;1.516;2023-05-20T10:38:20;12.10;;;3.00;;
72771;SDS011;60894;42.544;1.516;2023-05-20T10:40:47;7.45;;;2.20;;
72771;SDS011;60894;42.544;1.516;2023-05-20T10:43:15;8.00;;;1.92;;
72771;SDS011;60894;42.544;1.516;2023-05-20T10:45:49;4.37;;;1.90;;
72771;SDS011;60894;42.544;1.516;2023-05-20T10:48:22;8.48;;;2.20;;
72771;SDS011;60894;42.544;1.516;2023-05-20T10:50:52;7.05;;;2.17;;
72771;SDS011;60894;42.544;1.516;2023-05-20T10:53:21;5.35;;;2.13;;
72771;SDS011;60894;42.544;1.516;2023-05-20T10:55:49;12.25;;;4.13;;
72771;SDS011;60894;42.544;1.516;2023-05-20T10:58:19;7.70;;;2.23;;
72771;SDS011;60894;42.544;1.516;2023-05-20T11:00:47;5.43;;;2.00;;
72771;SDS011;60894;42.544;1.516;2023-05-20T11:03:14;9.30;;;2.20;;
72771;SDS011;60894;42.544;1.516;2023-05-20T11:05:44;10.25;;;2.30;;
72771;SDS011;60894;42.544;1.516;2023-05-20T11:08:12;5.47;;;1.75;;
72771;SDS011;60894;42.544;1.516;2023-05-20T11:10:40;7.07;;;2.40;;
72771;SDS011;60894;42.544;1.516;2023-05-20T11:13:07;6.45;;;2.13;;
72771;SDS011;60894;42.544;1.516;2023-05-20T11:15:38;6.40;;;2.67;;
72771;SDS011;60894;42.544;1.516;2023-05-20T11:18:05;5.80;;;1.90;;
72771;SDS011;60894;42.544;1.516;2023-05-20T11:20:32;5.20;;;2.00;;
72771;SDS011;60894;42.544;1.516;2023-05-20T11:23:01;5.73;;;2.00;;
72771;SDS011;60894;42.544;1.516;2023-05-20T11:25:28;6.40;;;2.00;;
72771;SDS011;60894;42.544;1.516;2023-05-20T11:27:55;6.38;;;1.98;;
72771;SDS011;60894;42.544;1.516;2023-05-20T11:30:22;6.03;;;2.17;;
72771;SDS011;60894;42.544;1.516;2023-05-20T11:32:56;4.68;;;1.60;;
72771;SDS011;60894;42.544;1.516;2023-05-20T11:35:25;6.23;;;1.90;;
72771;SDS011;60894;42.544;1.516;2023-05-20T11:37:55;5.90;;;2.00;;
72771;SDS011;60894;42.544;1.516;2023-05-20T11:40:25;6.45;;;2.13;;
72771;SDS011;60894;42.544;1.516;2023-05-20T11:42:53;7.25;;;1.80;;
72771;SDS011;60894;42.544;1.516;2023-05-20T11:45:21;5.43;;;1.80;;
72771;SDS011;60894;42.544;1.516;2023-05-20T11:47:58;5.83;;;1.83;;
72771;SDS011;60894;42.544;1.516;2023-05-20T11:50:26;5.60;;;1.73;;
72771;SDS011;60894;42.544;1.516;2023-05-20T11:52:56;7.10;;;1.80;;
72771;SDS011;60894;42.544;1.516;2023-05-20T11:55:26;6.13;;;1.88;;
72771;SDS011;60894;42.544;1.516;2023-05-20T11:57:52;9.45;;;4.03;;
72771;SDS011;60894;42.544;1.516;2023-05-20T12:00:20;5.37;;;2.10;;
72771;SDS011;60894;42.544;1.516;2023-05-20T12:02:48;7.50;;;2.20;;
72771;SDS011;60894;42.544;1.516;2023-05-20T12:05:15;8.00;;;2.25;;
72771;SDS011;60894;42.544;1.516;2023-05-20T12:07:42;6.88;;;2.70;;
72771;SDS011;60894;42.544;1.516;2023-05-20T12:10:09;7.95;;;2.28;;
72771;SDS011;60894;42.544;1.516;2023-05-20T12:12:39;5.63;;;1.90;;
72771;SDS011;60894;42.544;1.516;2023-05-20T12:15:06;6.47;;;1.92;;
72771;SDS011;60894;42.544;1.516;2023-05-20T12:17:42;6.45;;;2.00;;
72771;SDS011;60894;42.544;1.516;2023-05-20T12:20:10;6.90;;;1.85;;
72771;SDS011;60894;42.544;1.516;2023-05-20T12:22:39;5.68;;;1.88;;
72771;SDS011;60894;42.544;1.516;2023-05-20T12:25:06;4.60;;;1.80;;
72771;SDS011;60894;42.544;1.516;2023-05-20T12:27:34;6.05;;;1.80;;
72771;SDS011;60894;42.544;1.516;2023-05-20T12:30:02;3.45;;;1.50;;
72771;SDS011;60894;42.544;1.516;2023-05-20T12:32:29;4.90;;;1.70;;
72771;SDS011;60894;42.544;1.516;2023-05-20T12:34:56;4.53;;;1.60;;
72771;SDS011;60894;42.544;1.516;2023-05-20T12:37:23;3.77;;;1.40;;
72771;SDS011;60894;42.544;1.516;2023-05-20T12:39:50;5.03;;;1.70;;
72771;SDS011;60894;42.544;1.516;2023-05-20T12:42:17;5.65;;;1.90;;
72771;SDS011;60894;42.544;1.516;2023-05-20T12:44:44;5.43;;;1.70;;
72771;SDS011;60894;42.544;1.516;2023-05-20T12:47:12;5.45;;;1.80;;
72771;SDS011;60894;42.544;1.516;2023-05-20T12:49:40;4.13;;;1.80;;
72771;SDS011;60894;42.544;1.516;2023-05-20T12:52:07;6.22;;;1.85;;
72771;SDS011;60894;42.544;1.516;2023-05-20T12:54:33;5.93;;;2.10;;
72771;SDS011;60894;42.544;1.516;2023-05-20T12:57:00;7.40;;;2.00;;
72771;SDS011;60894;42.544;1.516;2023-05-20T12:59:28;7.97;;;1.90;;
72771;SDS011;60894;42.544;1.516;2023-05-20T13:01:55;5.33;;;1.90;;
72771;SDS011;60894;42.544;1.516;2023-05-20T13:04:23;5.88;;;1.70;;
72771;SDS011;60894;42.544;1.516;2023-05-20T13:06:50;5.57;;;1.65;;
72771;SDS011;60894;42.544;1.516;2023-05-20T13:09:17;8.32;;;2.80;;
72771;SDS011;60894;42.544;1.516;2023-05-20T13:11:44;4.47;;;1.80;;
72771;SDS011;60894;42.544;1.516;2023-05-20T13:14:11;6.13;;;2.07;;
72771;SDS011;60894;42.544;1.516;2023-05-20T13:16:38;5.22;;;1.75;;
72771;SDS011;60894;42.544;1.516;2023-05-20T13:19:05;3.85;;;1.63;;
72771;SDS011;60894;42.544;1.516;2023-05-20T13:21:34;4.97;;;1.55;;
72771;SDS011;60894;42.544;1.516;2023-05-20T13:24:01;6.20;;;1.58;;
72771;SDS011;60894;42.544;1.516;2023-05-20T13:26:28;5.83;;;2.00;;
72771;SDS011;60894;42.544;1.516;2023-05-20T13:28:55;5.18;;;1.58;;
72771;SDS011;60894;42.544;1.516;2023-05-20T13:31:22;5.32;;;1.75;;
72771;SDS011;60894;42.544;1.516;2023-05-20T13:33:49;5.60;;;1.73;;
72771;SDS011;60894;42.544;1.516;2023-05-20T13:36:17;5.00;;;1.90;;
72771;SDS011;60894;42.544;1.516;2023-05-20T13:38:45;5.57;;;1.57;;
72771;SDS011;60894;42.544;1.516;2023-05-20T13:41:12;4.55;;;1.48;;
72771;SDS011;60894;42.544;1.516;2023-05-20T13:43:40;4.07;;;1.70;;
72771;SDS011;60894;42.544;1.516;2023-05-20T13:46:07;4.72;;;1.63;;
72771;SDS011;60894;42.544;1.516;2023-05-20T13:48:34;6.10;;;2.15;;
72771;SDS011;60894;42.544;1.516;2023-05-20T13:51:01;4.73;;;1.73;;
72771;SDS011;60894;42.544;1.516;2023-05-20T13:53:27;4.57;;;1.77;;
72771;SDS011;60894;42.544;1.516;2023-05-20T13:55:56;6.57;;;1.90;;
72771;SDS011;60894;42.544;1.516;2023-05-20T13:58:23;7.28;;;2.17;;
72771;SDS011;60894;42.544;1.516;2023-05-20T14:00:50;4.45;;;1.70;;
72771;SDS011;60894;42.544;1.516;2023-05-20T14:03:17;6.17;;;1.70;;
72771;SDS011;60894;42.544;1.516;2023-05-20T14:05:44;5.03;;;1.65;;
72771;SDS011;60894;42.544;1.516;2023-05-20T14:08:11;5.15;;;2.20;;
72771;SDS011;60894;42.544;1.516;2023-05-20T14:10:38;6.25;;;1.63;;
72771;SDS011;60894;42.544;1.516;2023-05-20T14:13:07;6.28;;;1.92;;
72771;SDS011;60894;42.544;1.516;2023-05-20T14:15:34;6.20;;;1.90;;
72771;SDS011;60894;42.544;1.516;2023-05-20T14:18:02;9.43;;;2.17;;
72771;SDS011;60894;42.544;1.516;2023-05-20T14:20:29;6.60;;;2.20;;
72771;SDS011;60894;42.544;1.516;2023-05-20T14:22:56;5.07;;;1.98;;
72771;SDS011;60894;42.544;1.516;2023-05-20T14:25:24;5.53;;;1.80;;
72771;SDS011;60894;42.544;1.516;2023-05-20T14:27:52;5.47;;;2.23;;
72771;SDS011;60894;42.544;1.516;2023-05-20T14:30:20;5.47;;;1.83;;
72771;SDS011;60894;42.544;1.516;2023-05-20T14:32:47;4.25;;;1.80;;
72771;SDS011;60894;42.544;1.516;2023-05-20T14:35:14;5.13;;;1.60;;
72771;SDS011;60894;42.544;1.516;2023-05-20T14:37:42;7.15;;;2.38;;
72771;SDS011;60894;42.544;1.516;2023-05-20T14:40:09;6.13;;;1.93;;
72771;SDS011;60894;42.544;1.516;2023-05-20T14:42:37;6.30;;;1.90;;
72771;SDS011;60894;42.544;1.516;2023-05-20T14:45:05;5.57;;;1.75;;
72771;SDS011;60894;42.544;1.516;2023-05-20T14:47:34;5.18;;;1.77;;
72771;SDS011;60894;42.544;1.516;2023-05-20T14:50:00;4.40;;;1.90;;
72771;SDS011;60894;42.544;1.516;2023-05-20T14:52:27;5.13;;;1.97;;
72771;SDS011;60894;42.544;1.516;2023-05-20T14:54:54;5.20;;;1.70;;